Time,TemperatureF,DewpointF,PressureIn,WindDirection,WindDirectionDegrees,WindSpeedMPH,WindSpeedGustMPH,Humidity,HourlyPrecipIn,Conditions,Clouds,dailyrainin,SoftwareType,DateUTC
2013-11-19 00:01:00,74.5,68.0,29.91,ENE,68,0.4,0.4,80,0.00,,,0.00,WUHU216HW,2013-11-19 05:01:00,
2013-11-19 00:02:00,74.5,68.0,29.91,ENE,68,0.0,0.4,80,0.00,,,0.00,WUHU216HW,2013-11-19 05:02:00,
2013-11-19 00:06:00,74.3,67.9,29.91,ENE,68,0.0,0.4,80,0.00,,,0.00,WUHU216HW,2013-11-19 05:06:00,
2013-11-19 00:11:00,74.3,67.9,29.91,ENE,68,0.0,0.0,80,0.00,,,0.00,WUHU216HW,2013-11-19 05:11:00,
2013-11-19 00:16:00,74.3,67.9,29.91,ENE,68,0.0,0.0,80,0.00,,,0.00,WUHU216HW,2013-11-19 05:16:00,
2013-11-19 00:21:00,74.3,67.9,29.91,ENE,68,0.0,0.0,80,0.00,,,0.00,WUHU216HW,2013-11-19 05:21:00,
2013-11-19 00:26:00,74.2,67.7,29.91,ENE,68,0.0,0.0,80,0.00,,,0.00,WUHU216HW,2013-11-19 05:26:00,
2013-11-19 00:31:00,74.2,67.7,29.91,ENE,68,0.0,0.0,80,0.00,,,0.00,WUHU216HW,2013-11-19 05:31:00,
2013-11-19 00:36:00,74.2,67.7,29.90,ENE,68,0.0,0.0,80,0.00,,,0.00,WUHU216HW,2013-11-19 05:36:00,
2013-11-19 00:41:00,74.0,67.5,29.90,ENE,68,0.0,0.0,80,0.00,,,0.00,WUHU216HW,2013-11-19 05:41:00,
2013-11-19 00:46:00,73.8,67.3,29.90,ENE,68,0.0,0.0,80,0.00,,,0.00,WUHU216HW,2013-11-19 05:46:00,
2013-11-19 00:51:00,73.8,67.3,29.89,ENE,68,0.0,0.4,80,0.00,,,0.00,WUHU216HW,2013-11-19 05:51:00,
2013-11-19 00:56:00,73.8,67.3,29.89,ENE,68,0.0,0.4,80,0.00,,,0.00,WUHU216HW,2013-11-19 05:56:00,
2013-11-19 01:02:00,73.8,67.3,29.89,ENE,68,0.0,0.0,80,0.00,,,0.00,WUHU216HW,2013-11-19 06:02:00,
2013-11-19 01:07:00,73.8,67.3,29.89,ENE,68,0.0,0.0,80,0.00,,,0.00,WUHU216HW,2013-11-19 06:07:00,
2013-11-19 01:12:00,73.6,67.1,29.89,ENE,68,0.0,0.0,80,0.00,,,0.00,WUHU216HW,2013-11-19 06:12:00,
2013-11-19 01:17:00,73.6,67.1,29.89,ENE,68,0.0,0.0,80,0.00,,,0.00,WUHU216HW,2013-11-19 06:17:00,
2013-11-19 01:22:00,73.4,67.0,29.89,ENE,68,0.0,0.0,80,0.00,,,0.00,WUHU216HW,2013-11-19 06:22:00,
2013-11-19 01:27:00,73.4,67.0,29.88,ENE,68,0.0,0.0,80,0.00,,,0.00,WUHU216HW,2013-11-19 06:27:00,
2013-11-19 01:32:00,73.4,67.0,29.88,ENE,68,0.4,0.4,80,0.00,,,0.00,WUHU216HW,2013-11-19 06:32:00,
2013-11-19 01:37:00,73.4,67.0,29.88,ENE,68,0.0,0.4,80,0.00,,,0.00,WUHU216HW,2013-11-19 06:37:00,
2013-11-19 01:42:00,73.3,66.8,29.87,ENE,68,0.0,0.2,80,0.00,,,0.00,WUHU216HW,2013-11-19 06:42:00,
2013-11-19 01:47:00,73.3,66.8,29.87,ENE,68,0.0,0.4,80,0.00,,,0.00,WUHU216HW,2013-11-19 06:47:00,
2013-11-19 01:52:00,73.1,66.6,29.88,ENE,68,0.0,0.4,80,0.00,,,0.00,WUHU216HW,2013-11-19 06:52:00,
2013-11-19 01:58:00,73.1,66.6,29.88,ENE,68,0.0,0.0,80,0.00,,,0.00,WUHU216HW,2013-11-19 06:58:00,
2013-11-19 02:03:00,73.1,66.6,29.89,ENE,68,0.0,0.0,80,0.00,,,0.00,WUHU216HW,2013-11-19 07:03:00,
2013-11-19 02:08:00,73.1,66.6,29.89,ENE,68,0.0,0.0,80,0.00,,,0.00,WUHU216HW,2013-11-19 07:08:00,
2013-11-19 02:13:00,73.1,66.6,29.89,ENE,68,0.0,0.0,80,0.00,,,0.00,WUHU216HW,2013-11-19 07:13:00,
2013-11-19 02:18:00,73.1,66.6,29.89,WNW,293,0.0,0.4,80,0.00,,,0.00,WUHU216HW,2013-11-19 07:18:00,
2013-11-19 02:23:00,73.1,66.6,29.89,WNW,293,0.0,0.4,80,0.00,,,0.00,WUHU216HW,2013-11-19 07:23:00,
2013-11-19 02:28:00,73.1,66.6,29.89,WNW,293,0.0,0.0,80,0.00,,,0.00,WUHU216HW,2013-11-19 07:28:00,
2013-11-19 02:33:00,73.1,66.6,29.89,WNW,293,0.0,0.0,80,0.00,,,0.00,WUHU216HW,2013-11-19 07:33:00,
2013-11-19 02:38:00,73.1,66.6,29.89,WNW,293,0.0,0.0,80,0.00,,,0.00,WUHU216HW,2013-11-19 07:38:00,
2013-11-19 02:43:00,73.1,66.3,29.89,WNW,293,0.0,0.0,79,0.00,,,0.00,WUHU216HW,2013-11-19 07:43:00,
2013-11-19 02:48:00,73.1,66.3,29.89,WNW,293,0.0,0.0,79,0.00,,,0.00,WUHU216HW,2013-11-19 07:48:00,
2013-11-19 02:54:00,73.3,66.4,29.89,WNW,293,0.0,0.0,79,0.00,,,0.00,WUHU216HW,2013-11-19 07:54:00,
2013-11-19 02:59:00,73.3,66.4,29.89,WNW,293,0.0,0.0,79,0.00,,,0.00,WUHU216HW,2013-11-19 07:59:00,
2013-11-19 03:04:00,73.3,66.4,29.88,WNW,293,0.0,0.0,79,0.00,,,0.00,WUHU216HW,2013-11-19 08:04:00,
2013-11-19 03:09:00,73.3,66.4,29.89,WNW,293,0.0,0.0,79,0.00,,,0.00,WUHU216HW,2013-11-19 08:09:00,
2013-11-19 03:14:00,73.3,66.4,29.88,WNW,293,0.0,0.0,79,0.00,,,0.00,WUHU216HW,2013-11-19 08:14:00,
2013-11-19 03:19:00,73.3,66.4,29.88,WNW,293,0.0,0.0,79,0.00,,,0.00,WUHU216HW,2013-11-19 08:19:00,
2013-11-19 03:24:00,73.3,66.4,29.88,WNW,293,0.0,0.0,79,0.00,,,0.00,WUHU216HW,2013-11-19 08:24:00,
2013-11-19 03:29:00,73.3,66.4,29.88,WNW,293,0.0,0.0,79,0.00,,,0.00,WUHU216HW,2013-11-19 08:29:00,
2013-11-19 03:34:00,73.4,66.6,29.88,WNW,293,0.0,0.0,79,0.00,,,0.00,WUHU216HW,2013-11-19 08:34:00,
2013-11-19 03:39:00,73.4,66.6,29.88,WNW,293,0.0,0.0,79,0.00,,,0.00,WUHU216HW,2013-11-19 08:39:00,
2013-11-19 03:45:00,73.4,66.6,29.87,SSE,158,0.0,0.2,79,0.00,,,0.00,WUHU216HW,2013-11-19 08:45:00,
2013-11-19 03:50:00,73.4,66.6,29.87,SSE,158,0.0,0.2,79,0.00,,,0.00,WUHU216HW,2013-11-19 08:50:00,
2013-11-19 03:55:00,73.4,66.6,29.87,NNW,338,0.7,0.7,79,0.00,,,0.00,WUHU216HW,2013-11-19 08:55:00,
2013-11-19 04:00:00,73.4,66.6,29.87,NNW,338,0.0,0.7,79,0.00,,,0.00,WUHU216HW,2013-11-19 09:00:00,
2013-11-19 04:05:00,73.4,66.6,29.87,NNW,338,0.0,0.2,79,0.00,,,0.00,WUHU216HW,2013-11-19 09:05:00,
2013-11-19 04:11:00,73.6,66.8,29.87,NNW,338,0.0,0.0,79,0.00,,,0.00,WUHU216HW,2013-11-19 09:11:00,
2013-11-19 04:16:00,73.6,66.4,29.87,NNW,338,0.0,0.0,78,0.00,,,0.00,WUHU216HW,2013-11-19 09:16:00,
2013-11-19 04:22:00,73.6,66.4,29.86,NW,315,0.0,0.0,78,0.00,,,0.00,WUHU216HW,2013-11-19 09:22:00,
2013-11-19 04:27:00,73.6,66.4,29.87,NNW,338,0.4,0.4,78,0.00,,,0.00,WUHU216HW,2013-11-19 09:27:00,
2013-11-19 04:32:00,73.4,66.3,29.87,NNW,338,0.0,0.4,78,0.00,,,0.00,WUHU216HW,2013-11-19 09:32:00,
2013-11-19 04:37:00,73.4,66.6,29.87,NNW,338,0.0,0.4,79,0.00,,,0.00,WUHU216HW,2013-11-19 09:37:00,
2013-11-19 04:42:00,73.4,66.6,29.87,NNW,338,0.0,0.0,79,0.00,,,0.00,WUHU216HW,2013-11-19 09:42:00,
2013-11-19 04:47:00,73.4,66.6,29.87,NNW,338,0.0,0.0,79,0.00,,,0.00,WUHU216HW,2013-11-19 09:47:00,
2013-11-19 04:52:00,73.3,66.4,29.87,NNW,338,0.0,0.0,79,0.00,,,0.00,WUHU216HW,2013-11-19 09:52:00,
2013-11-19 04:57:00,73.3,66.4,29.86,NNW,338,0.0,0.0,79,0.00,,,0.00,WUHU216HW,2013-11-19 09:57:00,
2013-11-19 05:03:00,73.3,66.4,29.86,NNW,338,0.0,0.0,79,0.00,,,0.00,WUHU216HW,2013-11-19 10:03:00,
2013-11-19 05:08:00,73.3,66.4,29.86,NNW,338,0.0,0.0,79,0.00,,,0.00,WUHU216HW,2013-11-19 10:08:00,
2013-11-19 05:13:00,73.1,66.3,29.87,NNW,338,0.0,0.0,79,0.00,,,0.00,WUHU216HW,2013-11-19 10:13:00,
2013-11-19 05:18:00,73.1,66.3,29.86,NNW,338,0.0,0.0,79,0.00,,,0.00,WUHU216HW,2013-11-19 10:18:00,
2013-11-19 05:23:00,73.1,66.3,29.87,NNW,338,0.0,0.0,79,0.00,,,0.00,WUHU216HW,2013-11-19 10:23:00,
2013-11-19 05:28:00,73.1,66.3,29.86,NNW,338,0.0,0.0,79,0.00,,,0.00,WUHU216HW,2013-11-19 10:28:00,
2013-11-19 05:33:00,72.9,66.1,29.86,NNW,338,0.0,0.0,79,0.00,,,0.00,WUHU216HW,2013-11-19 10:33:00,
2013-11-19 05:38:00,72.9,66.1,29.86,NNW,338,0.0,0.0,79,0.00,,,0.00,WUHU216HW,2013-11-19 10:38:00,
2013-11-19 05:43:00,72.9,66.1,29.87,NNW,338,0.0,0.0,79,0.00,,,0.00,WUHU216HW,2013-11-19 10:43:00,
2013-11-19 05:48:00,72.9,66.1,29.87,NNW,338,0.0,0.0,79,0.00,,,0.00,WUHU216HW,2013-11-19 10:48:00,
2013-11-19 05:53:00,72.7,65.9,29.87,NNW,338,0.0,0.0,79,0.00,,,0.00,WUHU216HW,2013-11-19 10:53:00,
2013-11-19 05:58:00,72.7,65.9,29.88,NW,315,0.4,0.4,79,0.00,,,0.00,WUHU216HW,2013-11-19 10:58:00,
2013-11-19 06:03:00,72.7,65.9,29.88,NW,315,0.0,0.4,79,0.00,,,0.00,WUHU216HW,2013-11-19 11:03:00,
2013-11-19 06:09:00,72.7,65.9,29.88,NW,315,0.0,0.4,79,0.00,,,0.00,WUHU216HW,2013-11-19 11:09:00,
2013-11-19 06:14:00,72.7,65.9,29.88,NW,315,0.0,0.0,79,0.00,,,0.00,WUHU216HW,2013-11-19 11:14:00,
2013-11-19 06:18:00,72.7,65.9,29.88,NW,315,0.0,0.0,79,0.00,,,0.00,WUHU216HW,2013-11-19 11:18:00,
2013-11-19 06:19:00,72.7,65.9,29.88,NW,315,0.0,0.0,79,0.00,,,0.00,WUHU216HW,2013-11-19 11:19:00,
2013-11-19 06:24:00,72.7,65.9,29.88,NW,315,0.0,0.0,79,0.00,,,0.00,WUHU216HW,2013-11-19 11:24:00,
2013-11-19 06:49:00,72.7,65.5,29.89,NW,315,0.0,0.0,78,0.00,,,0.00,WUHU216HW,2013-11-19 11:49:00,
2013-11-19 06:54:00,72.9,65.7,29.89,NW,315,0.0,0.0,78,0.00,,,0.00,WUHU216HW,2013-11-19 11:54:00,
2013-11-19 06:59:00,72.9,65.7,29.89,NW,315,0.0,0.0,78,0.00,,,0.00,WUHU216HW,2013-11-19 11:59:00,
2013-11-19 07:04:00,72.9,65.7,29.89,NW,315,0.0,0.0,78,0.00,,,0.00,WUHU216HW,2013-11-19 12:04:00,
2013-11-19 07:09:00,72.9,65.7,29.89,NW,315,0.0,0.0,78,0.00,,,0.00,WUHU216HW,2013-11-19 12:09:00,
2013-11-19 07:14:00,72.9,65.7,29.89,NW,315,0.0,0.0,78,0.00,,,0.00,WUHU216HW,2013-11-19 12:14:00,
2013-11-19 07:19:00,72.9,65.7,29.89,NW,315,0.0,0.0,78,0.00,,,0.00,WUHU216HW,2013-11-19 12:19:00,
2013-11-19 07:24:00,72.9,65.7,29.89,NW,315,0.0,0.0,78,0.00,,,0.00,WUHU216HW,2013-11-19 12:24:00,
2013-11-19 07:29:00,73.1,65.9,29.90,NW,315,0.0,0.0,78,0.00,,,0.00,WUHU216HW,2013-11-19 12:29:00,
2013-11-19 07:34:00,73.1,65.9,29.90,NW,315,0.0,0.0,78,0.00,,,0.00,WUHU216HW,2013-11-19 12:34:00,
2013-11-19 07:39:00,73.1,65.4,29.90,NW,315,0.0,0.0,77,0.00,,,0.00,WUHU216HW,2013-11-19 12:39:00,
2013-11-19 07:44:00,73.1,65.9,29.90,NW,315,0.0,0.0,78,0.00,,,0.00,WUHU216HW,2013-11-19 12:44:00,
2013-11-19 07:49:00,73.1,65.4,29.91,NW,315,0.0,0.0,77,0.00,,,0.00,WUHU216HW,2013-11-19 12:49:00,
2013-11-19 07:55:00,73.1,65.4,29.91,NNW,338,0.2,0.4,77,0.00,,,0.00,WUHU216HW,2013-11-19 12:55:00,
2013-11-19 08:00:00,73.1,65.4,29.91,North,0,0.0,0.7,77,0.00,,,0.00,WUHU216HW,2013-11-19 13:00:00,
2013-11-19 08:05:00,73.1,65.4,29.91,North,0,0.4,1.6,77,0.00,,,0.00,WUHU216HW,2013-11-19 13:05:00,
2013-11-19 08:10:00,73.1,65.4,29.91,North,0,0.0,1.6,77,0.00,,,0.00,WUHU216HW,2013-11-19 13:10:00,
2013-11-19 08:15:00,73.3,66.1,29.91,NNW,338,0.4,0.7,78,0.00,,,0.00,WUHU216HW,2013-11-19 13:15:00,
2013-11-19 08:20:00,73.3,66.1,29.91,NNW,338,0.0,0.7,78,0.00,,,0.00,WUHU216HW,2013-11-19 13:20:00,
2013-11-19 08:25:00,73.4,66.3,29.91,NNW,338,0.0,0.4,78,0.00,,,0.00,WUHU216HW,2013-11-19 13:25:00,
2013-11-19 08:30:00,73.4,66.3,29.91,NNW,338,0.0,0.2,78,0.00,,,0.00,WUHU216HW,2013-11-19 13:30:00,
2013-11-19 08:35:00,73.4,66.3,29.91,WNW,293,0.9,0.9,78,0.00,,,0.00,WUHU216HW,2013-11-19 13:35:00,
2013-11-19 08:40:00,73.8,66.6,29.91,WNW,293,0.2,0.9,78,0.00,,,0.00,WUHU216HW,2013-11-19 13:40:00,
2013-11-19 08:45:00,74.0,66.7,29.91,NW,315,1.3,1.8,78,0.00,,,0.00,WUHU216HW,2013-11-19 13:45:00,
2013-11-19 08:50:00,74.2,66.9,29.91,North,0,1.6,1.8,78,0.00,,,0.00,WUHU216HW,2013-11-19 13:50:00,
2013-11-19 08:55:00,74.3,67.1,29.91,NW,315,0.0,1.8,78,0.00,,,0.00,WUHU216HW,2013-11-19 13:55:00,
2013-11-19 09:00:00,74.3,67.1,29.91,West,270,2.2,2.5,78,0.00,,,0.00,WUHU216HW,2013-11-19 14:00:00,
2013-11-19 09:05:00,74.5,67.2,29.92,NW,315,1.1,2.5,78,0.00,,,0.00,WUHU216HW,2013-11-19 14:05:00,
2013-11-19 09:11:00,74.5,67.2,29.92,NE,45,0.2,2.5,78,0.00,,,0.00,WUHU216HW,2013-11-19 14:11:00,
2013-11-19 09:16:00,74.7,67.9,29.92,NW,315,1.6,2.5,79,0.00,,,0.00,WUHU216HW,2013-11-19 14:16:00,
2013-11-19 09:21:00,75.1,68.2,29.92,NNE,23,1.8,1.8,79,0.00,,,0.00,WUHU216HW,2013-11-19 14:21:00,
2013-11-19 09:26:00,75.4,68.5,29.92,North,0,1.1,1.8,79,0.00,,,0.00,WUHU216HW,2013-11-19 14:26:00,
2013-11-19 09:28:00,75.4,68.5,29.92,NW,315,2.0,2.0,79,0.00,,,0.00,WUHU216HW,2013-11-19 14:28:00,
2013-11-19 09:33:00,75.6,68.7,29.92,NW,315,2.2,2.2,79,0.00,,,0.00,WUHU216HW,2013-11-19 14:33:00,
2013-11-19 09:38:00,76.0,69.0,29.92,NW,315,1.6,2.2,79,0.00,,,0.00,WUHU216HW,2013-11-19 14:38:00,
2013-11-19 09:43:00,76.3,69.4,29.93,NW,315,1.1,2.0,79,0.00,,,0.00,WUHU216HW,2013-11-19 14:43:00,
2013-11-19 09:48:00,76.7,69.7,29.93,NNW,338,0.2,2.9,79,0.00,,,0.00,WUHU216HW,2013-11-19 14:48:00,
2013-11-19 09:53:00,76.9,69.9,29.93,NW,315,1.1,1.1,79,0.00,,,0.00,WUHU216HW,2013-11-19 14:53:00,
2013-11-19 09:58:00,77.0,70.0,29.93,SSW,203,0.4,2.2,79,0.00,,,0.00,WUHU216HW,2013-11-19 14:58:00,
2013-11-19 10:03:00,77.4,70.4,29.93,West,270,0.4,2.2,79,0.00,,,0.00,WUHU216HW,2013-11-19 15:03:00,
2013-11-19 10:08:00,77.6,70.6,29.93,West,270,3.4,3.4,79,0.00,,,0.00,WUHU216HW,2013-11-19 15:08:00,
2013-11-19 10:13:00,77.9,70.9,29.92,North,0,1.1,3.4,79,0.00,,,0.00,WUHU216HW,2013-11-19 15:13:00,
2013-11-19 10:18:00,78.1,71.1,29.92,NNW,338,0.4,1.8,79,0.00,,,0.00,WUHU216HW,2013-11-19 15:18:00,
2013-11-19 10:23:00,78.7,71.7,29.93,South,180,0.2,1.8,79,0.00,,,0.00,WUHU216HW,2013-11-19 15:23:00,
2013-11-19 10:28:00,78.8,71.4,29.92,WSW,248,0.4,0.9,78,0.00,,,0.00,WUHU216HW,2013-11-19 15:28:00,
2013-11-19 10:33:00,79.4,71.9,29.92,SSE,158,0.4,0.9,78,0.00,,,0.00,WUHU216HW,2013-11-19 15:33:00,
2013-11-19 10:39:00,79.6,72.1,29.92,NNW,338,1.3,2.2,78,0.00,,,0.00,WUHU216HW,2013-11-19 15:39:00,
2013-11-19 10:44:00,79.4,71.6,29.92,East,90,0.9,2.7,77,0.00,,,0.00,WUHU216HW,2013-11-19 15:44:00,
2013-11-19 10:49:00,79.4,71.6,29.92,NNE,23,0.0,2.7,77,0.00,,,0.00,WUHU216HW,2013-11-19 15:49:00,
2013-11-19 10:54:00,79.4,71.6,29.91,NNW,338,1.3,2.5,77,0.00,,,0.00,WUHU216HW,2013-11-19 15:54:00,
2013-11-19 10:59:00,79.6,72.1,29.92,ENE,68,0.2,2.5,78,0.00,,,0.00,WUHU216HW,2013-11-19 15:59:00,
2013-11-19 11:04:00,79.7,72.3,29.91,NW,315,1.1,1.1,78,0.00,,,0.00,WUHU216HW,2013-11-19 16:04:00,
2013-11-19 11:09:00,79.7,71.9,29.91,NNW,338,0.4,1.3,77,0.00,,,0.00,WUHU216HW,2013-11-19 16:09:00,
2013-11-19 11:14:00,79.9,72.1,29.91,NNW,338,1.6,2.2,77,0.00,,,0.00,WUHU216HW,2013-11-19 16:14:00,
2013-11-19 11:19:00,80.1,71.8,29.90,NW,315,1.8,2.5,76,0.00,,,0.00,WUHU216HW,2013-11-19 16:19:00,
2013-11-19 11:24:00,80.3,72.5,29.91,NW,315,1.8,2.5,77,0.00,,,0.00,WUHU216HW,2013-11-19 16:24:00,
2013-11-19 11:30:00,80.5,72.6,29.90,WSW,248,0.7,2.9,77,0.00,,,0.00,WUHU216HW,2013-11-19 16:30:00,
2013-11-19 11:35:00,80.6,72.4,29.90,NW,315,4.0,4.0,76,0.00,,,0.00,WUHU216HW,2013-11-19 16:35:00,
2013-11-19 11:40:00,80.8,72.5,29.90,SW,225,1.8,4.0,76,0.00,,,0.00,WUHU216HW,2013-11-19 16:40:00,
2013-11-19 11:45:00,81.0,72.7,29.90,WSW,248,0.2,2.5,76,0.00,,,0.00,WUHU216HW,2013-11-19 16:45:00,
2013-11-19 11:51:00,81.4,73.1,29.91,SW,225,0.7,1.8,76,0.00,,,0.00,WUHU216HW,2013-11-19 16:51:00,
2013-11-19 11:56:00,81.2,72.6,29.90,NW,315,1.3,2.9,75,0.00,,,0.00,WUHU216HW,2013-11-19 16:56:00,
2013-11-19 12:01:00,81.2,72.6,29.90,SW,225,0.4,2.9,75,0.00,,,0.00,WUHU216HW,2013-11-19 17:01:00,
2013-11-19 12:06:00,81.0,72.4,29.90,WNW,293,1.1,2.7,75,0.00,,,0.00,WUHU216HW,2013-11-19 17:06:00,
2013-11-19 12:13:00,80.8,72.2,29.90,NW,315,0.4,2.7,75,0.00,,,0.00,WUHU216HW,2013-11-19 17:13:00,
2013-11-19 12:18:00,80.6,72.0,29.89,NNW,338,2.5,2.5,75,0.00,,,0.00,WUHU216HW,2013-11-19 17:18:00,
2013-11-19 12:23:00,80.6,72.0,29.89,West,270,2.0,2.5,75,0.00,,,0.00,WUHU216HW,2013-11-19 17:23:00,
2013-11-19 12:28:00,80.5,71.8,29.89,West,270,1.1,2.5,75,0.00,,,0.00,WUHU216HW,2013-11-19 17:28:00,
2013-11-19 12:33:00,80.5,71.8,29.89,West,270,0.7,3.4,75,0.00,,,0.00,WUHU216HW,2013-11-19 17:33:00,
2013-11-19 12:37:00,80.3,71.6,29.88,West,270,1.3,3.4,75,0.00,,,0.00,WUHU216HW,2013-11-19 17:37:00,
2013-11-19 12:42:00,80.5,71.5,29.88,SW,225,0.4,3.4,74,0.00,,,0.00,WUHU216HW,2013-11-19 17:42:00,
2013-11-19 12:47:00,80.6,72.0,29.87,WSW,248,0.4,3.4,75,0.00,,,0.00,WUHU216HW,2013-11-19 17:47:00,
2013-11-19 12:52:00,80.8,71.7,29.87,WSW,248,1.6,2.2,74,0.00,,,0.00,WUHU216HW,2013-11-19 17:52:00,
2013-11-19 12:57:00,80.8,72.2,29.87,WSW,248,1.3,3.4,75,0.00,,,0.00,WUHU216HW,2013-11-19 17:57:00,
2013-11-19 13:02:00,81.0,71.9,29.86,WSW,248,1.1,4.0,74,0.00,,,0.00,WUHU216HW,2013-11-19 18:02:00,
2013-11-19 13:07:00,81.4,71.9,29.87,WSW,248,0.9,4.0,73,0.00,,,0.00,WUHU216HW,2013-11-19 18:07:00,
2013-11-19 13:13:00,81.5,72.5,29.87,NNW,338,1.1,2.9,74,0.00,,,0.00,WUHU216HW,2013-11-19 18:13:00,
2013-11-19 13:18:00,81.7,72.6,29.87,WSW,248,2.5,2.9,74,0.00,,,0.00,WUHU216HW,2013-11-19 18:18:00,
2013-11-19 13:20:00,81.9,72.4,29.87,WNW,293,1.8,1.8,73,0.00,,,0.00,WUHU216HW,2013-11-19 18:20:00,
2013-11-19 13:23:00,81.9,72.4,29.87,WNW,293,1.8,3.4,73,0.00,,,0.00,WUHU216HW,2013-11-19 18:23:00,
2013-11-19 13:28:00,81.9,72.4,29.87,WNW,293,1.8,3.4,73,0.00,,,0.00,WUHU216HW,2013-11-19 18:28:00,
2013-11-19 13:51:00,81.7,72.2,29.86,WNW,293,0.4,0.4,73,0.00,,,0.00,WUHU216HW,2013-11-19 18:51:00,
2013-11-19 13:56:00,81.9,72.4,29.86,WSW,248,0.9,0.9,73,0.00,,,0.00,WUHU216HW,2013-11-19 18:56:00,
2013-11-19 14:01:00,82.1,73.0,29.86,West,270,1.1,1.1,74,0.00,,,0.00,WUHU216HW,2013-11-19 19:01:00,
2013-11-19 14:06:00,81.7,72.2,29.86,WSW,248,0.4,1.8,73,0.00,,,0.00,WUHU216HW,2013-11-19 19:06:00,
2013-11-19 14:11:00,81.7,72.2,29.86,SW,225,2.2,2.2,73,0.00,,,0.00,WUHU216HW,2013-11-19 19:11:00,
2013-11-19 14:16:00,81.9,72.4,29.86,NW,315,1.1,2.2,73,0.00,,,0.00,WUHU216HW,2013-11-19 19:16:00,
2013-11-19 14:21:00,81.7,71.8,29.86,WSW,248,0.7,2.2,72,0.00,,,0.00,WUHU216HW,2013-11-19 19:21:00,
2013-11-19 14:26:00,81.7,71.8,29.86,WSW,248,0.4,2.0,72,0.00,,,0.00,WUHU216HW,2013-11-19 19:26:00,
2013-11-19 14:31:00,81.7,71.8,29.86,SW,225,0.4,2.5,72,0.00,,,0.00,WUHU216HW,2013-11-19 19:31:00,
2013-11-19 14:36:00,81.7,71.8,29.86,West,270,1.6,2.7,72,0.00,,,0.00,WUHU216HW,2013-11-19 19:36:00,
2013-11-19 14:41:00,81.7,71.4,29.86,WSW,248,1.3,2.7,71,0.00,,,0.00,WUHU216HW,2013-11-19 19:41:00,
2013-11-19 14:46:00,81.7,71.8,29.85,SW,225,1.1,2.0,72,0.00,,,0.00,WUHU216HW,2013-11-19 19:46:00,
2013-11-19 14:51:00,81.7,71.4,29.86,SW,225,1.6,3.6,71,0.00,,,0.00,WUHU216HW,2013-11-19 19:51:00,
2013-11-19 14:56:00,81.5,71.3,29.85,NW,315,1.3,3.6,71,0.00,,,0.00,WUHU216HW,2013-11-19 19:56:00,
2013-11-19 15:01:00,81.5,71.3,29.85,West,270,1.3,3.4,71,0.00,,,0.00,WUHU216HW,2013-11-19 20:01:00,
2013-11-19 15:06:00,81.4,71.5,29.85,WSW,248,2.0,2.5,72,0.00,,,0.00,WUHU216HW,2013-11-19 20:06:00,
2013-11-19 15:12:00,81.5,71.6,29.85,WSW,248,2.0,2.5,72,0.00,,,0.00,WUHU216HW,2013-11-19 20:12:00,
2013-11-19 15:17:00,81.5,71.6,29.85,WSW,248,2.7,2.7,72,0.00,,,0.00,WUHU216HW,2013-11-19 20:17:00,
2013-11-19 15:22:00,81.5,71.6,29.85,WSW,248,1.3,2.7,72,0.00,,,0.00,WUHU216HW,2013-11-19 20:22:00,
2013-11-19 15:27:00,81.7,71.8,29.86,North,0,3.4,3.4,72,0.00,,,0.00,WUHU216HW,2013-11-19 20:27:00,
2013-11-19 15:32:00,81.5,71.6,29.86,West,270,2.2,3.4,72,0.00,,,0.00,WUHU216HW,2013-11-19 20:32:00,
2013-11-19 15:37:00,81.2,71.7,29.86,West,270,0.9,2.7,73,0.00,,,0.00,WUHU216HW,2013-11-19 20:37:00,
2013-11-19 15:42:00,81.0,71.6,29.85,WSW,248,1.6,1.8,73,0.00,,,0.00,WUHU216HW,2013-11-19 20:42:00,
2013-11-19 15:47:00,80.6,71.7,29.86,West,270,0.4,1.8,74,0.00,,,0.00,WUHU216HW,2013-11-19 20:47:00,
2013-11-19 15:52:00,80.5,71.5,29.86,NW,315,2.2,2.2,74,0.00,,,0.00,WUHU216HW,2013-11-19 20:52:00,
2013-11-19 15:57:00,80.3,71.3,29.86,West,270,1.1,2.5,74,0.00,,,0.00,WUHU216HW,2013-11-19 20:57:00,
2013-11-19 16:00:00,80.3,71.3,29.86,SW,225,1.1,1.1,74,0.00,,,0.00,WUHU216HW,2013-11-19 21:00:00,
2013-11-19 16:02:00,80.3,71.3,29.86,SW,225,1.1,2.5,74,0.00,,,0.00,WUHU216HW,2013-11-19 21:02:00,
2013-11-19 16:07:00,80.3,71.3,29.86,SW,225,1.1,1.8,74,0.00,,,0.00,WUHU216HW,2013-11-19 21:07:00,
2013-11-19 16:30:00,79.6,70.9,29.86,West,270,1.1,1.1,75,0.00,,,0.00,WUHU216HW,2013-11-19 21:30:00,
2013-11-19 16:32:00,79.6,70.9,29.86,West,270,1.1,1.1,75,0.00,,,0.00,WUHU216HW,2013-11-19 21:32:00,
2013-11-19 16:37:00,79.6,70.9,29.86,West,270,1.1,1.1,75,0.00,,,0.00,WUHU216HW,2013-11-19 21:37:00,
2013-11-19 17:01:00,79.0,70.7,29.87,West,270,1.1,1.1,76,0.00,,,0.00,WUHU216HW,2013-11-19 22:01:00,
2013-11-19 17:06:00,78.8,70.6,29.86,West,270,0.9,1.1,76,0.00,,,0.00,WUHU216HW,2013-11-19 22:06:00,
2013-11-19 17:11:00,78.7,70.4,29.86,NNW,338,2.5,2.7,76,0.00,,,0.00,WUHU216HW,2013-11-19 22:11:00,
2013-11-19 17:16:00,78.5,70.3,29.86,NW,315,1.6,2.7,76,0.00,,,0.00,WUHU216HW,2013-11-19 22:16:00,
2013-11-19 17:21:00,78.3,70.1,29.87,NW,315,1.8,2.9,76,0.00,,,0.00,WUHU216HW,2013-11-19 22:21:00,
2013-11-19 17:26:00,78.1,69.9,29.87,NW,315,1.8,2.9,76,0.00,,,0.00,WUHU216HW,2013-11-19 22:26:00,
2013-11-19 17:31:00,78.1,69.9,29.87,WNW,293,1.3,2.5,76,0.00,,,0.00,WUHU216HW,2013-11-19 22:31:00,
2013-11-19 17:36:00,78.1,69.9,29.86,West,270,0.0,2.0,76,0.00,,,0.00,WUHU216HW,2013-11-19 22:36:00,
2013-11-19 17:41:00,77.8,69.9,29.86,NW,315,1.8,2.5,77,0.00,,,0.00,WUHU216HW,2013-11-19 22:41:00,
2013-11-19 17:46:00,77.6,69.8,29.87,NNW,338,0.4,2.5,77,0.00,,,0.00,WUHU216HW,2013-11-19 22:46:00,
2013-11-19 17:52:00,77.6,69.8,29.87,NW,315,0.4,1.8,77,0.00,,,0.00,WUHU216HW,2013-11-19 22:52:00,
2013-11-19 17:57:00,77.8,69.9,29.87,NW,315,0.2,1.6,77,0.00,,,0.00,WUHU216HW,2013-11-19 22:57:00,
2013-11-19 18:02:00,77.8,69.9,29.87,West,270,0.0,1.6,77,0.00,,,0.00,WUHU216HW,2013-11-19 23:02:00,
2013-11-19 18:07:00,77.6,69.8,29.87,NW,315,0.4,0.9,77,0.00,,,0.00,WUHU216HW,2013-11-19 23:07:00,
2013-11-19 18:12:00,77.6,69.8,29.87,WNW,293,0.0,0.9,77,0.00,,,0.00,WUHU216HW,2013-11-19 23:12:00,
2013-11-19 18:17:00,77.4,70.0,29.88,WNW,293,0.0,0.9,78,0.00,,,0.00,WUHU216HW,2013-11-19 23:17:00,
2013-11-19 18:22:00,77.4,70.0,29.88,NNW,338,0.2,0.9,78,0.00,,,0.00,WUHU216HW,2013-11-19 23:22:00,
2013-11-19 18:27:00,77.2,69.9,29.88,NNW,338,0.4,0.7,78,0.00,,,0.00,WUHU216HW,2013-11-19 23:27:00,
2013-11-19 18:32:00,77.2,69.9,29.89,NNW,338,1.6,1.8,78,0.00,,,0.00,WUHU216HW,2013-11-19 23:32:00,
2013-11-19 18:37:00,77.0,69.7,29.89,NNW,338,0.4,2.9,78,0.00,,,0.00,WUHU216HW,2013-11-19 23:37:00,
2013-11-19 18:42:00,77.0,69.7,29.89,NNW,338,0.4,2.9,78,0.00,,,0.00,WUHU216HW,2013-11-19 23:42:00,
2013-11-19 18:48:00,77.0,69.7,29.89,NNW,338,0.2,2.5,78,0.00,,,0.00,WUHU216HW,2013-11-19 23:48:00,
2013-11-19 18:53:00,77.0,69.7,29.89,North,0,0.4,1.8,78,0.00,,,0.00,WUHU216HW,2013-11-19 23:53:00,
2013-11-19 18:58:00,77.0,69.7,29.89,North,0,0.9,1.8,78,0.00,,,0.00,WUHU216HW,2013-11-19 23:58:00,
2013-11-19 19:03:00,76.9,69.5,29.90,NNW,338,1.1,1.8,78,0.00,,,0.00,WUHU216HW,2013-11-20 00:03:00,
2013-11-19 19:08:00,76.9,69.5,29.90,NNW,338,0.9,1.3,78,0.00,,,0.00,WUHU216HW,2013-11-20 00:08:00,
2013-11-19 19:13:00,76.9,69.5,29.90,North,0,0.4,1.3,78,0.00,,,0.00,WUHU216HW,2013-11-20 00:13:00,
2013-11-19 19:18:00,76.7,69.3,29.90,NNW,338,0.0,1.1,78,0.00,,,0.00,WUHU216HW,2013-11-20 00:18:00,
2013-11-19 19:23:00,76.7,69.3,29.90,North,0,0.4,0.4,78,0.00,,,0.00,WUHU216HW,2013-11-20 00:23:00,
2013-11-19 19:28:00,76.7,69.7,29.90,NNW,338,0.4,0.9,79,0.00,,,0.00,WUHU216HW,2013-11-20 00:28:00,
2013-11-19 19:35:00,76.7,69.7,29.90,NW,315,0.4,0.9,79,0.00,,,0.00,WUHU216HW,2013-11-20 00:35:00,
2013-11-19 19:40:00,76.5,69.5,29.90,NNW,338,0.0,0.4,79,0.00,,,0.00,WUHU216HW,2013-11-20 00:40:00,
2013-11-19 19:45:00,76.3,69.4,29.90,NNW,338,0.0,0.0,79,0.00,,,0.00,WUHU216HW,2013-11-20 00:45:00,
2013-11-19 19:50:00,76.3,69.4,29.90,NNW,338,0.0,0.0,79,0.00,,,0.00,WUHU216HW,2013-11-20 00:50:00,
2013-11-19 19:55:00,76.3,69.4,29.90,NNW,338,0.0,0.0,79,0.00,,,0.00,WUHU216HW,2013-11-20 00:55:00,
2013-11-19 20:00:00,76.3,69.4,29.91,NNW,338,0.0,0.0,79,0.00,,,0.00,WUHU216HW,2013-11-20 01:00:00,
2013-11-19 20:05:00,76.3,69.4,29.91,North,0,0.0,0.0,79,0.00,,,0.00,WUHU216HW,2013-11-20 01:05:00,
2013-11-19 20:13:00,76.1,69.2,29.91,ENE,68,0.0,0.4,79,0.00,,,0.00,WUHU216HW,2013-11-20 01:13:00,
2013-11-19 20:18:00,76.0,69.0,29.91,East,90,0.4,0.4,79,0.00,,,0.00,WUHU216HW,2013-11-20 01:18:00,
2013-11-19 20:22:00,76.0,69.0,29.91,East,90,0.0,0.0,79,0.00,,,0.00,WUHU216HW,2013-11-20 01:22:00,
2013-11-19 20:23:00,76.0,69.0,29.91,East,90,0.0,0.4,79,0.00,,,0.00,WUHU216HW,2013-11-20 01:23:00,
2013-11-19 20:28:00,76.0,69.0,29.91,East,90,0.0,0.0,79,0.00,,,0.00,WUHU216HW,2013-11-20 01:28:00,
2013-11-19 20:53:00,75.4,68.5,29.92,NE,45,0.0,0.0,79,0.00,,,0.00,WUHU216HW,2013-11-20 01:53:00,
2013-11-19 20:58:00,75.4,68.5,29.92,NE,45,0.0,0.0,79,0.00,,,0.00,WUHU216HW,2013-11-20 01:58:00,
2013-11-19 21:03:00,75.2,68.4,29.92,NE,45,0.0,0.0,79,0.00,,,0.00,WUHU216HW,2013-11-20 02:03:00,
2013-11-19 21:08:00,75.2,68.4,29.92,NE,45,0.0,0.0,79,0.00,,,0.00,WUHU216HW,2013-11-20 02:08:00,
2013-11-19 21:13:00,75.2,68.4,29.92,NE,45,0.0,0.0,79,0.00,,,0.00,WUHU216HW,2013-11-20 02:13:00,
2013-11-19 21:19:00,75.1,68.2,29.92,NE,45,0.0,0.0,79,0.00,,,0.00,WUHU216HW,2013-11-20 02:19:00,
2013-11-19 21:24:00,75.1,68.2,29.92,NE,45,0.0,0.0,79,0.00,,,0.00,WUHU216HW,2013-11-20 02:24:00,
2013-11-19 21:29:00,74.9,68.1,29.92,NE,45,0.0,0.0,79,0.00,,,0.00,WUHU216HW,2013-11-20 02:29:00,
2013-11-19 21:34:00,74.9,68.1,29.93,NE,45,0.0,0.0,79,0.00,,,0.00,WUHU216HW,2013-11-20 02:34:00,
2013-11-19 21:39:00,74.9,68.1,29.93,NE,45,0.0,0.0,79,0.00,,,0.00,WUHU216HW,2013-11-20 02:39:00,
2013-11-19 21:44:00,74.9,68.1,29.93,NE,45,0.0,0.0,79,0.00,,,0.00,WUHU216HW,2013-11-20 02:44:00,
2013-11-19 21:50:00,74.7,67.9,29.93,NE,45,0.0,0.0,79,0.00,,,0.00,WUHU216HW,2013-11-20 02:50:00,
2013-11-19 21:55:00,74.7,68.2,29.93,NE,45,0.0,0.0,80,0.00,,,0.00,WUHU216HW,2013-11-20 02:55:00,
2013-11-19 22:01:00,74.5,68.0,29.93,NE,45,0.0,0.0,80,0.00,,,0.00,WUHU216HW,2013-11-20 03:01:00,
2013-11-19 22:06:00,74.5,68.0,29.93,NE,45,0.0,0.0,80,0.00,,,0.00,WUHU216HW,2013-11-20 03:06:00,
2013-11-19 22:11:00,74.5,67.7,29.93,NE,45,0.0,0.0,79,0.00,,,0.00,WUHU216HW,2013-11-20 03:11:00,
2013-11-19 22:17:00,74.5,68.0,29.93,NE,45,0.0,0.0,80,0.00,,,0.00,WUHU216HW,2013-11-20 03:17:00,
2013-11-19 22:22:00,74.5,68.0,29.93,NE,45,0.0,0.0,80,0.00,,,0.00,WUHU216HW,2013-11-20 03:22:00,
2013-11-19 22:27:00,74.3,67.9,29.93,NE,45,0.0,0.0,80,0.00,,,0.00,WUHU216HW,2013-11-20 03:27:00,
2013-11-19 22:32:00,74.3,67.9,29.93,NE,45,0.0,0.0,80,0.00,,,0.00,WUHU216HW,2013-11-20 03:32:00,
2013-11-19 22:37:00,74.2,67.7,29.93,NE,45,0.0,0.0,80,0.00,,,0.00,WUHU216HW,2013-11-20 03:37:00,
2013-11-19 22:42:00,74.2,67.7,29.93,NE,45,0.0,0.0,80,0.00,,,0.00,WUHU216HW,2013-11-20 03:42:00,
2013-11-19 22:47:00,74.2,67.7,29.93,NE,45,0.0,0.0,80,0.00,,,0.00,WUHU216HW,2013-11-20 03:47:00,
2013-11-19 22:52:00,74.0,67.5,29.93,NE,45,0.0,0.0,80,0.00,,,0.00,WUHU216HW,2013-11-20 03:52:00,
2013-11-19 22:57:00,74.0,67.5,29.92,NE,45,0.2,0.2,80,0.00,,,0.00,WUHU216HW,2013-11-20 03:57:00,
2013-11-19 23:02:00,74.0,67.5,29.92,NE,45,0.0,0.2,80,0.00,,,0.00,WUHU216HW,2013-11-20 04:02:00,
2013-11-19 23:07:00,73.8,67.3,29.92,NE,45,0.0,0.0,80,0.00,,,0.00,WUHU216HW,2013-11-20 04:07:00,
2013-11-19 23:12:00,73.8,67.3,29.92,NE,45,0.0,0.0,80,0.00,,,0.00,WUHU216HW,2013-11-20 04:12:00,
2013-11-19 23:13:00,73.8,67.3,29.92,NE,45,0.0,0.0,80,0.00,,,0.00,WUHU216HW,2013-11-20 04:13:00,
2013-11-19 23:18:00,73.8,67.3,29.92,NE,45,0.0,0.0,80,0.00,,,0.00,WUHU216HW,2013-11-20 04:18:00,
2013-11-19 23:43:00,73.6,67.1,29.91,NE,45,0.0,0.0,80,0.00,,,0.00,WUHU216HW,2013-11-20 04:43:00,
2013-11-19 23:44:00,73.6,67.1,29.91,NE,45,0.0,0.0,80,0.00,,,0.00,WUHU216HW,2013-11-20 04:44:00,
2013-11-19 23:49:00,73.6,67.1,29.91,NE,45,0.0,0.0,80,0.00,,,0.00,WUHU216HW,2013-11-20 04:49:00,